createdAt,value
2018-07-21T00:00:56.551Z,57.35
2018-07-21T00:01:56.573Z,57.64
2018-07-21T00:02:56.598Z,58.12
2018-07-21T00:03:56.621Z,57.84
2018-07-21T00:04:56.659Z,57.64
2018-07-21T00:05:56.675Z,57.84
2018-07-21T00:06:56.701Z,58.12
2018-07-21T00:07:56.723Z,58.70
2018-07-21T00:08:56.748Z,58.90
2018-07-21T00:09:56.777Z,58.03
2018-07-21T00:10:56.803Z,58.61
2018-07-21T00:11:56.827Z,59.00
2018-07-21T00:12:56.856Z,59.09
2018-07-21T00:13:56.875Z,59.67
2018-07-21T00:14:56.903Z,60.06
2018-07-21T00:15:56.928Z,60.54
2018-07-21T00:16:56.951Z,59.28
2018-07-21T00:17:56.985Z,60.35
2018-07-21T00:18:57.002Z,60.06
2018-07-21T00:19:57.027Z,59.96
2018-07-21T00:20:57.053Z,59.28
2018-07-21T00:21:57.081Z,60.35
2018-07-21T00:22:57.103Z,58.90
2018-07-21T00:23:57.131Z,59.93
2018-07-21T00:24:57.154Z,60.22
2018-07-21T00:25:58.134Z,60.89
2018-07-21T00:26:57.208Z,61.96
2018-07-21T00:27:57.229Z,61.96
2018-07-21T00:28:57.259Z,60.99
2018-07-21T00:29:57.282Z,60.80
2018-07-21T00:30:57.309Z,60.71
2018-07-21T00:31:57.333Z,61.09
2018-07-21T00:32:57.356Z,60.41
2018-07-21T00:33:57.388Z,60.80
2018-07-21T00:34:57.407Z,61.09
2018-07-21T00:35:57.433Z,60.51
2018-07-21T00:36:57.456Z,60.31
2018-07-21T00:37:57.484Z,59.55
2018-07-21T00:38:57.511Z,59.64
2018-07-21T00:39:57.532Z,59.64
2018-07-21T00:40:57.557Z,59.93
2018-07-21T00:41:57.583Z,59.16
2018-07-21T00:42:57.608Z,59.16
2018-07-21T00:43:57.635Z,59.83
2018-07-21T00:44:57.657Z,59.83
2018-07-21T00:45:57.683Z,58.77
2018-07-21T00:46:57.706Z,59.16
2018-07-21T00:47:57.732Z,58.77
2018-07-21T00:48:57.757Z,58.87
2018-07-21T00:49:57.787Z,58.87
2018-07-21T00:50:57.810Z,59.13
2018-07-21T00:51:57.835Z,59.80
2018-07-21T00:52:57.859Z,59.23
2018-07-21T00:53:57.883Z,59.80
2018-07-21T00:54:57.912Z,59.90
2018-07-21T00:55:57.933Z,60.10
2018-07-21T00:56:57.962Z,60.10
2018-07-21T00:57:58.235Z,60.00
2018-07-21T00:58:58.013Z,60.19
2018-07-21T00:59:58.034Z,60.28
2018-07-21T01:00:58.061Z,59.71
2018-07-21T01:01:58.087Z,59.80
2018-07-21T01:02:58.108Z,59.71
2018-07-21T01:03:58.133Z,59.80
2018-07-21T01:04:58.158Z,60.10
2018-07-21T01:05:58.187Z,60.00
2018-07-21T01:06:58.209Z,60.00
2018-07-21T01:07:58.239Z,60.28
2018-07-21T01:08:58.258Z,59.80
2018-07-21T01:09:58.286Z,60.19
2018-07-21T01:10:58.311Z,60.10
2018-07-21T01:11:58.332Z,60.45
2018-07-21T01:12:58.367Z,60.86
2018-07-21T01:13:58.383Z,61.16
2018-07-21T01:14:58.412Z,60.68
2018-07-21T01:15:58.434Z,60.96
2018-07-21T01:16:58.456Z,60.83
2018-07-21T01:17:58.484Z,61.32
2018-07-21T01:18:58.508Z,61.41
2018-07-21T01:19:58.534Z,61.51
2018-07-21T01:20:58.555Z,61.71
2018-07-21T01:21:58.580Z,61.80
2018-07-21T01:22:58.610Z,61.80
2018-07-21T01:23:58.629Z,61.41
2018-07-21T01:24:58.658Z,61.64
2018-07-21T01:25:58.681Z,61.25
2018-07-21T01:26:58.705Z,61.44
2018-07-21T01:27:58.728Z,61.44
2018-07-21T01:28:58.753Z,62.31
2018-07-21T01:29:58.781Z,62.12
2018-07-21T01:30:58.806Z,61.83
2018-07-21T01:31:58.828Z,61.83
2018-07-21T01:32:58.855Z,62.31
2018-07-21T01:33:58.877Z,62.02
2018-07-21T01:34:58.903Z,62.12
2018-07-21T01:35:58.926Z,62.12
2018-07-21T01:36:58.956Z,62.12
2018-07-21T01:37:58.977Z,62.02
2018-07-21T01:38:59.001Z,62.31
2018-07-21T01:39:59.027Z,62.31
2018-07-21T01:40:59.050Z,62.31
2018-07-21T01:41:59.078Z,62.22
2018-07-21T01:42:59.100Z,62.31
2018-07-21T01:43:59.128Z,62.60
2018-07-21T01:44:59.154Z,62.51
2018-07-21T01:45:59.175Z,62.57
2018-07-21T01:46:59.203Z,63.24
2018-07-21T01:47:59.227Z,63.73
2018-07-21T01:48:59.249Z,63.24
2018-07-21T01:49:59.274Z,63.34
2018-07-21T01:50:59.300Z,63.92
2018-07-21T01:51:59.624Z,63.54
2018-07-21T01:52:59.347Z,64.31
2018-07-21T01:53:59.379Z,63.95
2018-07-21T01:54:59.402Z,64.40
2018-07-21T01:55:59.424Z,64.79
2018-07-21T01:56:59.450Z,64.69
2018-07-21T01:57:59.472Z,65.17
2018-07-21T01:58:59.497Z,65.17
2018-07-21T01:59:59.522Z,64.79
2018-07-21T02:00:59.549Z,65.37
2018-07-21T02:01:59.576Z,65.27
2018-07-21T02:02:59.599Z,65.56
2018-07-21T02:03:59.622Z,65.56
2018-07-21T02:04:59.645Z,65.47
2018-07-21T02:05:59.673Z,65.37
2018-07-21T02:06:59.699Z,65.17
2018-07-21T02:07:59.720Z,65.47
2018-07-21T02:08:59.744Z,65.37
2018-07-21T02:09:59.769Z,65.47
2018-07-21T02:10:59.799Z,65.27
2018-07-21T02:11:59.821Z,65.95
2018-07-21T02:12:59.843Z,65.37
2018-07-21T02:13:59.870Z,66.04
2018-07-21T02:14:59.893Z,66.04
2018-07-21T02:15:59.919Z,65.75
2018-07-21T02:16:59.944Z,66.24
2018-07-21T02:17:59.967Z,66.11
2018-07-21T02:18:59.991Z,66.62
2018-07-21T02:20:00.022Z,66.24
2018-07-21T02:21:00.041Z,66.33
2018-07-21T02:22:00.068Z,66.24
2018-07-21T02:23:00.089Z,66.43
2018-07-21T02:24:00.113Z,66.82
2018-07-21T02:25:00.138Z,66.24
2018-07-21T02:26:00.165Z,66.24
2018-07-21T02:27:00.187Z,66.82
2018-07-21T02:28:00.211Z,66.52
2018-07-21T02:29:00.239Z,66.82
2018-07-21T02:30:00.263Z,67.10
2018-07-21T02:31:00.285Z,66.88
2018-07-21T02:32:00.312Z,66.91
2018-07-21T02:33:00.344Z,66.78
2018-07-21T02:34:00.362Z,66.52
2018-07-21T02:35:00.393Z,67.00
2018-07-21T02:36:00.407Z,66.91
2018-07-21T02:37:00.432Z,66.72
2018-07-21T02:38:00.457Z,66.72
2018-07-21T02:39:00.484Z,66.82
2018-07-21T02:40:00.517Z,66.91
2018-07-21T02:41:00.532Z,67.36
2018-07-21T02:42:00.558Z,66.91
2018-07-21T02:43:00.582Z,67.65
2018-07-21T02:44:00.604Z,67.46
2018-07-21T02:45:00.628Z,67.94
2018-07-21T02:46:00.659Z,67.94
2018-07-21T02:47:00.677Z,67.55
2018-07-21T02:48:00.705Z,67.94
2018-07-21T02:49:00.726Z,67.65
2018-07-21T02:50:00.755Z,67.74
2018-07-21T02:51:00.776Z,67.84
2018-07-21T02:52:00.814Z,68.13
2018-07-21T02:53:00.835Z,68.52
2018-07-21T02:54:00.849Z,68.90
2018-07-21T02:55:00.873Z,68.99
2018-07-21T02:56:00.896Z,68.80
2018-07-21T02:57:01.125Z,68.90
2018-07-21T02:58:00.950Z,69.09
2018-07-21T02:59:00.976Z,69.19
2018-07-21T03:00:00.995Z,69.19
2018-07-21T03:01:01.021Z,69.67
2018-07-21T03:02:01.044Z,69.67
2018-07-21T03:03:01.072Z,69.96
2018-07-21T03:04:01.099Z,70.15
2018-07-21T03:05:01.120Z,69.87
2018-07-21T03:06:01.142Z,70.12
2018-07-21T03:07:01.167Z,69.67
2018-07-21T03:08:01.192Z,69.87
2018-07-21T03:09:01.217Z,70.35
2018-07-21T03:10:01.360Z,70.83
2018-07-21T03:11:01.265Z,70.44
2018-07-21T03:12:01.291Z,70.73
2018-07-21T03:13:01.315Z,71.41
2018-07-21T03:14:01.340Z,71.41
2018-07-21T03:15:01.363Z,71.12
2018-07-21T03:16:01.385Z,71.08
2018-07-21T03:17:01.411Z,71.89
2018-07-21T03:18:01.438Z,71.56
2018-07-21T03:19:01.460Z,71.76
2018-07-21T03:20:01.482Z,71.95
2018-07-21T03:21:01.510Z,71.95
2018-07-21T03:22:01.531Z,71.95
2018-07-21T03:23:01.559Z,72.27
2018-07-21T03:24:01.581Z,72.53
2018-07-21T03:25:01.605Z,72.33
2018-07-21T03:26:01.631Z,72.72
2018-07-21T03:27:01.656Z,72.53
2018-07-21T03:28:01.676Z,72.72
2018-07-21T03:29:01.703Z,72.63
2018-07-21T03:30:01.729Z,72.53
2018-07-21T03:31:01.853Z,72.53
2018-07-21T03:32:01.774Z,72.63
2018-07-21T03:33:01.801Z,72.53
2018-07-21T03:34:01.827Z,72.63
2018-07-21T03:35:01.847Z,72.91
2018-07-21T03:36:01.871Z,72.91
2018-07-21T03:37:01.897Z,73.20
2018-07-21T03:38:01.922Z,73.10
2018-07-21T03:39:01.947Z,73.10
2018-07-21T03:40:01.967Z,73.01
2018-07-21T03:41:01.994Z,73.20
2018-07-21T03:42:02.015Z,73.20
2018-07-21T03:43:02.043Z,73.39
2018-07-21T03:44:02.067Z,73.20
2018-07-21T03:45:02.093Z,73.10
2018-07-21T03:46:02.114Z,73.20
2018-07-21T03:47:02.141Z,73.78
2018-07-21T03:48:02.160Z,73.88
2018-07-21T03:49:02.189Z,74.26
2018-07-21T03:50:02.210Z,74.26
2018-07-21T03:51:02.234Z,74.36
2018-07-21T03:52:02.260Z,74.36
2018-07-21T03:53:02.283Z,74.93
2018-07-21T03:54:02.308Z,75.03
2018-07-21T03:55:02.402Z,75.13
2018-07-21T03:56:02.355Z,75.42
2018-07-21T03:57:02.378Z,75.32
2018-07-21T03:58:02.402Z,75.13
2018-07-21T03:59:02.430Z,74.84
2018-07-21T04:00:02.453Z,75.32
2018-07-21T04:01:02.475Z,75.03
2018-07-21T04:02:02.499Z,75.51
2018-07-21T04:03:02.524Z,75.23
2018-07-21T04:04:02.550Z,75.90
2018-07-21T04:05:02.571Z,75.51
2018-07-21T04:06:02.596Z,76.38
2018-07-21T04:07:02.623Z,75.90
2018-07-21T04:08:02.647Z,76.38
2018-07-21T04:09:02.683Z,76.67
2018-07-21T04:10:02.694Z,76.76
2018-07-21T04:11:02.720Z,77.06
2018-07-21T04:12:02.742Z,77.53
2018-07-21T04:13:02.768Z,76.57
2018-07-21T04:14:02.791Z,77.25
2018-07-21T04:15:02.816Z,77.83
2018-07-21T04:16:02.840Z,77.15
2018-07-21T04:17:02.864Z,77.25
2018-07-21T04:18:02.889Z,77.44
2018-07-21T04:19:02.913Z,77.53
2018-07-21T04:20:02.936Z,77.44
2018-07-21T04:21:02.974Z,77.44
2018-07-21T04:22:02.984Z,77.73
2018-07-21T04:23:03.009Z,77.44
2018-07-21T04:24:03.082Z,77.63
2018-07-21T04:25:03.058Z,77.44
2018-07-21T04:26:03.081Z,77.63
2018-07-21T04:27:03.108Z,76.76
2018-07-21T04:28:03.126Z,77.25
2018-07-21T04:29:03.150Z,76.67
2018-07-21T04:30:03.177Z,76.86
2018-07-21T04:31:03.201Z,77.34
2018-07-21T04:32:03.224Z,77.83
2018-07-21T04:33:03.246Z,77.53
2018-07-21T04:34:03.273Z,76.96
2018-07-21T04:35:03.298Z,77.83
2018-07-21T04:36:03.322Z,77.53
2018-07-21T04:37:03.345Z,77.15
2018-07-21T04:38:03.372Z,77.92
2018-07-21T04:39:03.393Z,78.40
2018-07-21T04:40:03.417Z,77.83
2018-07-21T04:41:03.440Z,77.83
2018-07-21T04:42:03.468Z,77.92
2018-07-21T04:43:03.492Z,78.02
2018-07-21T04:44:03.515Z,78.02
2018-07-21T04:45:03.540Z,77.92
2018-07-21T04:46:03.561Z,78.21
2018-07-21T04:47:03.586Z,78.21
2018-07-21T04:48:03.610Z,78.50
2018-07-21T04:49:03.634Z,79.08
2018-07-21T04:50:03.658Z,79.17
2018-07-21T04:51:03.683Z,79.36
2018-07-21T04:52:03.705Z,79.46
2018-07-21T04:53:03.730Z,79.75
2018-07-21T04:54:03.755Z,80.33
2018-07-21T04:55:03.779Z,79.85
2018-07-21T04:56:03.802Z,80.62
2018-07-21T04:57:03.827Z,80.62
2018-07-21T04:58:03.854Z,80.62
2018-07-21T04:59:03.876Z,80.81
2018-07-21T05:00:03.899Z,80.43
2018-07-21T05:01:03.947Z,80.71
2018-07-21T05:02:03.948Z,81.20
2018-07-21T05:03:03.974Z,80.81
2018-07-21T05:04:04.000Z,81.01
2018-07-21T05:05:04.022Z,80.91
2018-07-21T05:06:04.047Z,81.20
2018-07-21T05:07:04.119Z,80.81
2018-07-21T05:08:04.094Z,80.43
2018-07-21T05:09:04.120Z,81.01
2018-07-21T05:10:04.141Z,81.10
2018-07-21T05:11:04.168Z,80.91
2018-07-21T05:12:04.228Z,81.10
2018-07-21T05:13:04.219Z,80.62
2018-07-21T05:14:04.239Z,80.62
2018-07-21T05:15:04.261Z,80.91
2018-07-21T05:16:04.287Z,81.20
2018-07-21T05:17:04.309Z,81.10
2018-07-21T05:18:04.335Z,81.39
2018-07-21T05:19:04.363Z,81.48
2018-07-21T05:20:04.385Z,81.48
2018-07-21T05:21:04.409Z,81.58
2018-07-21T05:22:04.430Z,80.71
2018-07-21T05:23:04.457Z,81.29
2018-07-21T05:24:04.481Z,81.29
2018-07-21T05:25:04.508Z,81.01
2018-07-21T05:26:04.628Z,80.81
2018-07-21T05:27:04.554Z,80.91
2018-07-21T05:28:04.578Z,80.56
2018-07-21T05:29:04.602Z,80.56
2018-07-21T05:30:04.628Z,80.46
2018-07-21T05:31:04.649Z,80.62
2018-07-21T05:32:04.672Z,80.71
2018-07-21T05:33:04.701Z,81.29
2018-07-21T05:34:04.727Z,80.46
2018-07-21T05:35:04.750Z,80.76
2018-07-21T05:36:04.770Z,80.43
2018-07-21T05:37:04.801Z,80.56
2018-07-21T05:38:04.818Z,80.85
2018-07-21T05:39:04.864Z,80.04
2018-07-21T05:40:04.870Z,79.89
2018-07-21T05:41:04.894Z,79.89
2018-07-21T05:42:04.918Z,79.50
2018-07-21T05:43:04.945Z,79.69
2018-07-21T05:44:04.964Z,79.89
2018-07-21T05:45:05.017Z,79.21
2018-07-21T05:46:05.016Z,78.92
2018-07-21T05:47:05.041Z,78.92
2018-07-21T05:48:05.064Z,79.02
2018-07-21T05:49:05.093Z,79.02
2018-07-21T05:50:05.112Z,78.73
2018-07-21T05:51:05.136Z,78.83
2018-07-21T05:52:05.162Z,78.06
2018-07-21T05:53:05.222Z,77.76
2018-07-21T05:54:05.210Z,77.90
2018-07-21T05:55:05.233Z,77.61
2018-07-21T05:56:05.258Z,77.71
2018-07-21T05:57:05.282Z,77.51
2018-07-21T05:58:05.310Z,77.51
2018-07-21T05:59:05.335Z,77.13
2018-07-21T06:00:05.361Z,76.65
2018-07-21T06:01:05.380Z,76.75
2018-07-21T06:02:05.405Z,76.75
2018-07-21T06:03:05.477Z,76.65
2018-07-21T06:04:05.457Z,76.65
2018-07-21T06:05:05.479Z,76.26
2018-07-21T06:06:05.506Z,76.26
2018-07-21T06:07:05.532Z,75.97
2018-07-21T06:08:05.556Z,76.36
2018-07-21T06:09:05.580Z,75.92
2018-07-21T06:10:05.615Z,75.20
2018-07-21T06:11:05.650Z,75.59
2018-07-21T06:12:05.659Z,76.55
2018-07-21T06:13:05.682Z,76.26
2018-07-21T06:14:05.706Z,76.45
2018-07-21T06:15:05.732Z,76.17
2018-07-21T06:16:05.754Z,76.26
2018-07-21T06:17:05.851Z,75.78
2018-07-21T06:18:05.805Z,75.88
2018-07-21T06:19:05.828Z,75.88
2018-07-21T06:20:05.856Z,75.30
2018-07-21T06:21:05.879Z,75.78
2018-07-21T06:22:05.905Z,76.17
2018-07-21T06:23:05.929Z,76.36
2018-07-21T06:24:05.953Z,76.07
2018-07-21T06:25:06.025Z,76.45
2018-07-21T06:26:06.004Z,75.30
2018-07-21T06:27:06.430Z,75.20
2018-07-21T06:28:06.095Z,75.30
2018-07-21T06:29:06.079Z,75.20
2018-07-21T06:30:06.111Z,73.99
2018-07-21T06:31:06.130Z,72.73
2018-07-21T06:32:06.152Z,72.73
2018-07-21T06:33:06.179Z,72.83
2018-07-21T06:34:06.201Z,73.60
2018-07-21T06:35:06.225Z,73.50
2018-07-21T06:36:06.249Z,72.79
2018-07-21T06:37:06.280Z,72.34
2018-07-21T06:38:06.299Z,72.73
2018-07-21T06:39:06.332Z,72.44
2018-07-21T06:40:06.350Z,71.48
2018-07-21T06:41:06.376Z,71.48
2018-07-21T06:42:06.405Z,70.70
2018-07-21T06:43:06.454Z,70.61
2018-07-21T06:44:06.451Z,70.13
2018-07-21T06:45:06.478Z,69.64
2018-07-21T06:46:06.503Z,70.03
2018-07-21T06:47:06.529Z,69.87
2018-07-21T06:48:06.550Z,70.16
2018-07-21T06:49:06.576Z,70.64
2018-07-21T06:50:06.603Z,68.62
2018-07-21T06:51:06.631Z,67.94
2018-07-21T06:52:06.650Z,67.55
2018-07-21T06:53:06.680Z,67.65
2018-07-21T06:54:06.701Z,67.75
2018-07-21T06:55:06.731Z,67.75
2018-07-21T06:56:06.754Z,67.65
2018-07-21T06:57:06.778Z,67.55
2018-07-21T06:58:06.802Z,68.10
2018-07-21T06:59:06.856Z,67.55
2018-07-21T07:00:06.854Z,67.91
2018-07-21T07:01:06.880Z,67.71
2018-07-21T07:02:06.902Z,68.04
2018-07-21T07:03:06.932Z,67.55
2018-07-21T07:04:06.956Z,67.62
2018-07-21T07:05:07.026Z,68.13
2018-07-21T07:06:07.005Z,68.29
2018-07-21T07:07:07.030Z,68.59
2018-07-21T07:08:07.057Z,69.26
2018-07-21T07:09:07.080Z,69.26
2018-07-21T07:10:07.159Z,69.16
2018-07-21T07:11:07.133Z,68.62
2018-07-21T07:12:07.158Z,68.43
2018-07-21T07:13:07.181Z,68.52
2018-07-21T07:14:07.209Z,67.55
2018-07-21T07:15:07.235Z,67.94
2018-07-21T07:16:07.257Z,67.75
2018-07-21T07:17:07.290Z,67.65
2018-07-21T07:18:07.309Z,67.75
2018-07-21T07:19:07.334Z,67.75
2018-07-21T07:20:07.358Z,67.55
2018-07-21T07:21:07.385Z,68.43
2018-07-21T07:22:07.408Z,68.23
2018-07-21T07:23:07.437Z,67.94
2018-07-21T07:24:07.462Z,67.75
2018-07-21T07:25:07.487Z,67.55
2018-07-21T07:26:07.512Z,68.04
2018-07-21T07:27:07.538Z,67.94
2018-07-21T07:28:07.566Z,67.75
2018-07-21T07:29:07.586Z,68.07
2018-07-21T07:30:07.612Z,68.17
2018-07-21T07:31:07.639Z,67.78
2018-07-21T07:32:07.667Z,67.69
2018-07-21T07:33:07.690Z,68.17
2018-07-21T07:34:07.713Z,68.33
2018-07-21T07:35:07.777Z,68.13
2018-07-21T07:36:07.769Z,68.52
2018-07-21T07:37:07.794Z,69.20
2018-07-21T07:38:07.815Z,69.78
2018-07-21T07:39:07.843Z,69.49
2018-07-21T07:40:07.868Z,69.78
2018-07-21T07:41:07.894Z,69.39
2018-07-21T07:42:07.930Z,68.71
2018-07-21T07:43:07.948Z,69.20
2018-07-21T07:44:07.969Z,68.71
2018-07-21T07:45:08.002Z,68.55
2018-07-21T07:46:08.021Z,69.10
2018-07-21T07:47:08.055Z,69.68
2018-07-21T07:48:08.071Z,69.81
2018-07-21T07:49:08.099Z,69.13
2018-07-21T07:50:08.123Z,69.90
2018-07-21T07:51:08.150Z,70.29
2018-07-21T07:52:08.181Z,69.52
2018-07-21T07:53:08.200Z,68.75
2018-07-21T07:54:08.229Z,68.46
2018-07-21T07:55:08.252Z,68.17
2018-07-21T07:56:08.280Z,68.40
2018-07-21T07:57:08.305Z,68.75
2018-07-21T07:58:08.331Z,68.68
2018-07-21T07:59:08.354Z,69.42
2018-07-21T08:00:08.382Z,69.32
2018-07-21T08:01:08.418Z,69.13
2018-07-21T08:02:08.431Z,69.04
2018-07-21T08:03:08.460Z,68.65
2018-07-21T08:04:08.486Z,68.07
2018-07-21T08:05:08.508Z,68.07
2018-07-21T08:06:08.534Z,67.52
2018-07-21T08:07:08.563Z,67.43
2018-07-21T08:08:08.592Z,67.62
2018-07-21T08:09:08.615Z,67.72
2018-07-21T08:10:08.640Z,67.46
2018-07-21T08:11:08.665Z,66.50
2018-07-21T08:12:08.693Z,66.69
2018-07-21T08:13:08.719Z,66.50
2018-07-21T08:14:08.797Z,67.14
2018-07-21T08:15:08.767Z,67.72
2018-07-21T08:16:08.795Z,68.40
2018-07-21T08:17:08.822Z,68.59
2018-07-21T08:18:08.872Z,68.68
2018-07-21T08:19:08.871Z,68.40
2018-07-21T08:20:08.900Z,68.30
2018-07-21T08:21:08.923Z,67.72
2018-07-21T08:22:08.948Z,67.43
2018-07-21T08:23:08.977Z,67.66
2018-07-21T08:24:09.003Z,67.72
2018-07-21T08:25:09.029Z,67.62
2018-07-21T08:26:09.055Z,67.56
2018-07-21T08:27:09.081Z,66.78
2018-07-21T08:28:09.109Z,66.59
2018-07-21T08:29:09.203Z,66.91
2018-07-21T08:30:09.169Z,66.24
2018-07-21T08:31:09.236Z,64.79
2018-07-21T08:32:09.220Z,64.79
2018-07-21T08:33:09.240Z,64.31
2018-07-21T08:34:09.264Z,64.50
2018-07-21T08:35:09.290Z,64.98
2018-07-21T08:36:09.315Z,65.27
2018-07-21T08:37:09.345Z,64.98
2018-07-21T08:38:09.369Z,64.89
2018-07-21T08:39:09.397Z,64.40
2018-07-21T08:40:09.424Z,64.50
2018-07-21T08:41:09.455Z,64.40
2018-07-21T08:42:09.476Z,64.89
2018-07-21T08:43:09.502Z,64.89
2018-07-21T08:44:09.530Z,64.40
2018-07-21T08:45:09.558Z,63.73
2018-07-21T08:46:09.587Z,62.98
2018-07-21T08:47:09.616Z,63.08
2018-07-21T08:48:09.641Z,63.18
2018-07-21T08:49:09.665Z,63.27
2018-07-21T08:50:09.692Z,62.98
2018-07-21T08:51:09.716Z,62.30
2018-07-21T08:52:09.745Z,62.21
2018-07-21T08:53:09.772Z,62.40
2018-07-21T08:54:09.796Z,61.82
2018-07-21T08:55:09.825Z,62.50
2018-07-21T08:56:09.863Z,62.30
2018-07-21T08:57:09.879Z,62.30
2018-07-21T08:58:09.904Z,61.79
2018-07-21T08:59:09.934Z,62.47
2018-07-21T09:00:09.959Z,62.50
2018-07-21T09:01:09.986Z,62.01
2018-07-21T09:02:10.013Z,61.98
2018-07-21T09:03:10.042Z,62.11
2018-07-21T09:04:10.066Z,62.30
2018-07-21T09:05:10.100Z,61.92
2018-07-21T09:06:10.120Z,61.63
2018-07-21T09:07:10.145Z,61.72
2018-07-21T09:08:10.173Z,61.66
2018-07-21T09:09:10.203Z,60.78
2018-07-21T09:10:10.235Z,60.50
2018-07-21T09:11:10.253Z,60.59
2018-07-21T09:12:10.282Z,60.59
2018-07-21T09:13:10.415Z,60.50
2018-07-21T09:14:10.339Z,60.40
2018-07-21T09:15:10.361Z,60.59
2018-07-21T09:16:10.387Z,60.40
2018-07-21T09:17:10.417Z,60.88
2018-07-21T09:18:10.443Z,61.46
2018-07-21T09:19:10.471Z,61.46
2018-07-21T09:20:10.496Z,61.18
2018-07-21T09:21:10.526Z,60.78
2018-07-21T09:22:10.550Z,60.30
2018-07-21T09:23:10.578Z,60.14
2018-07-21T09:24:10.608Z,59.46
2018-07-21T09:25:10.630Z,59.46
2018-07-21T09:26:10.661Z,59.56
2018-07-21T09:27:10.687Z,59.56
2018-07-21T09:28:10.739Z,59.36
2018-07-21T09:29:10.744Z,58.72
2018-07-21T09:30:10.771Z,58.59
2018-07-21T09:31:10.795Z,58.88
2018-07-21T09:32:10.822Z,58.98
2018-07-21T09:33:10.853Z,59.17
2018-07-21T09:34:10.905Z,58.11
2018-07-21T09:35:10.907Z,58.42
2018-07-21T09:36:10.934Z,58.98
2018-07-21T09:37:10.959Z,59.56
2018-07-21T09:38:10.989Z,59.66
2018-07-21T09:39:11.015Z,60.40
2018-07-21T09:40:11.057Z,60.62
2018-07-21T09:41:11.070Z,60.14
2018-07-21T09:42:11.098Z,60.62
2018-07-21T09:43:11.123Z,59.66
2018-07-21T09:44:11.153Z,59.17
2018-07-21T09:45:11.179Z,59.39
2018-07-21T09:46:11.211Z,58.69
2018-07-21T09:47:11.237Z,58.98
2018-07-21T09:48:11.262Z,59.69
2018-07-21T09:49:11.318Z,59.30
2018-07-21T09:50:11.315Z,58.33
2018-07-21T09:51:11.345Z,58.11
2018-07-21T09:52:11.370Z,58.30
2018-07-21T09:53:11.400Z,58.11
2018-07-21T09:54:11.428Z,58.30
2018-07-21T09:55:11.457Z,57.23
2018-07-21T09:56:11.484Z,57.33
2018-07-21T09:57:11.507Z,58.39
2018-07-21T09:58:11.537Z,58.23
2018-07-21T09:59:11.561Z,57.84
2018-07-21T10:00:11.588Z,55.52
2018-07-21T10:01:11.624Z,55.52
2018-07-21T10:02:11.648Z,55.22
2018-07-21T10:03:11.674Z,55.13
2018-07-21T10:04:11.699Z,54.64
2018-07-21T10:05:11.729Z,55.64
2018-07-21T10:06:11.758Z,54.77
2018-07-21T10:07:11.783Z,54.86
2018-07-21T10:08:11.808Z,55.16
2018-07-21T10:09:11.835Z,55.54
2018-07-21T10:10:11.866Z,56.13
2018-07-21T10:11:11.959Z,56.41
2018-07-21T10:12:11.918Z,55.83
2018-07-21T10:13:11.951Z,55.93
2018-07-21T10:14:11.976Z,56.13
2018-07-21T10:15:12.001Z,55.18
2018-07-21T10:16:12.031Z,55.47
2018-07-21T10:17:12.056Z,55.08
2018-07-21T10:18:12.085Z,53.83
2018-07-21T10:19:12.117Z,54.21
2018-07-21T10:20:12.142Z,52.95
2018-07-21T10:21:12.166Z,53.15
2018-07-21T10:22:12.277Z,52.66
2018-07-21T10:23:12.226Z,52.30
2018-07-21T10:24:12.249Z,52.01
2018-07-21T10:25:12.281Z,51.62
2018-07-21T10:26:12.308Z,51.14
2018-07-21T10:27:12.337Z,51.01
2018-07-21T10:28:12.382Z,51.01
2018-07-21T10:29:12.393Z,51.23
2018-07-21T10:30:12.461Z,50.26
2018-07-21T10:31:12.749Z,49.66
2018-07-21T10:32:12.476Z,50.62
2018-07-21T10:33:12.638Z,50.53
2018-07-21T10:34:12.531Z,49.68
2018-07-21T10:35:12.564Z,49.39
2018-07-21T10:36:12.586Z,49.39
2018-07-21T10:37:12.617Z,48.22
2018-07-21T10:38:12.711Z,48.22
2018-07-21T10:39:12.671Z,49.00
2018-07-21T10:40:12.697Z,48.83
2018-07-21T10:41:12.725Z,49.02
2018-07-21T10:42:12.755Z,48.80
2018-07-21T10:43:12.781Z,49.32
2018-07-21T10:44:12.809Z,49.32
2018-07-21T10:45:12.839Z,49.41
2018-07-21T10:46:12.866Z,49.41
2018-07-21T10:47:12.898Z,49.32
2018-07-21T10:48:12.923Z,48.85
2018-07-21T10:49:12.949Z,49.05
2018-07-21T10:50:12.980Z,49.05
2018-07-21T10:51:13.012Z,48.47
2018-07-21T10:52:13.036Z,48.47
2018-07-21T10:53:13.068Z,48.27
2018-07-21T10:54:13.094Z,48.37
2018-07-21T10:55:13.120Z,48.18
2018-07-21T10:56:13.151Z,48.35
2018-07-21T10:57:13.181Z,49.54
2018-07-21T10:58:13.210Z,48.47
2018-07-21T10:59:13.234Z,47.88
2018-07-21T11:00:13.274Z,48.37
2018-07-21T11:01:13.294Z,47.59
2018-07-21T11:02:13.321Z,48.08
2018-07-21T11:03:13.349Z,48.37
2018-07-21T11:04:13.378Z,47.98
2018-07-21T11:05:13.406Z,48.08
2018-07-21T11:06:13.435Z,48.85
2018-07-21T11:07:13.460Z,49.05
2018-07-21T11:08:13.492Z,47.96
2018-07-21T11:09:13.519Z,48.85
2018-07-21T11:10:13.549Z,48.95
2018-07-21T11:11:13.575Z,48.47
2018-07-21T11:12:13.603Z,48.20
2018-07-21T11:13:13.632Z,47.98
2018-07-21T11:14:13.659Z,48.08
2018-07-21T11:15:13.770Z,48.18
2018-07-21T11:16:13.718Z,48.30
2018-07-21T11:17:13.744Z,48.30
2018-07-21T11:18:13.772Z,47.71
2018-07-21T11:19:13.802Z,47.74
2018-07-21T11:20:13.833Z,47.71
2018-07-21T11:21:13.865Z,47.52
2018-07-21T11:22:13.887Z,47.69
2018-07-21T11:23:13.915Z,48.18
2018-07-21T11:24:13.946Z,47.98
2018-07-21T11:25:13.973Z,47.98
2018-07-21T11:26:14.004Z,48.10
2018-07-21T11:27:14.030Z,48.00
2018-07-21T11:28:14.059Z,48.10
2018-07-21T11:29:14.096Z,48.39
2018-07-21T11:30:14.117Z,48.30
2018-07-21T11:31:14.147Z,48.20
2018-07-21T11:32:14.172Z,48.95
2018-07-21T11:33:14.202Z,48.95
2018-07-21T11:34:14.230Z,48.47
2018-07-21T11:35:14.369Z,48.30
2018-07-21T11:36:14.498Z,48.10
2018-07-21T11:37:14.315Z,47.71
2018-07-21T11:38:14.345Z,48.49
2018-07-21T11:39:14.391Z,48.49
2018-07-21T11:40:14.399Z,48.39
2018-07-21T11:41:14.431Z,48.37
2018-07-21T11:42:14.459Z,49.17
2018-07-21T11:43:14.487Z,48.39
2018-07-21T11:44:14.521Z,49.07
2018-07-21T11:45:14.546Z,48.49
2018-07-21T11:46:14.578Z,48.37
2018-07-21T11:47:14.601Z,48.39
2018-07-21T11:48:14.636Z,49.05
2018-07-21T11:49:14.660Z,48.85
2018-07-21T11:50:14.687Z,48.95
2018-07-21T11:51:14.717Z,49.46
2018-07-21T11:52:14.744Z,49.17
2018-07-21T11:53:14.771Z,48.51
2018-07-21T11:54:14.803Z,49.00
2018-07-21T11:55:14.829Z,49.10
2018-07-21T11:56:14.859Z,48.41
2018-07-21T11:57:14.889Z,48.13
2018-07-21T11:58:14.915Z,48.41
2018-07-21T11:59:14.993Z,48.13
2018-07-21T12:00:14.972Z,48.22
2018-07-21T12:01:14.999Z,48.00
2018-07-21T12:02:15.030Z,48.32
2018-07-21T12:03:15.057Z,48.22
2018-07-21T12:04:15.089Z,47.64
2018-07-21T12:05:15.140Z,47.47
2018-07-21T12:06:15.144Z,47.08
2018-07-21T12:07:15.173Z,47.66
2018-07-21T12:08:15.199Z,47.17
2018-07-21T12:09:15.230Z,46.78
2018-07-21T12:10:15.260Z,47.17
2018-07-21T12:11:15.287Z,47.47
2018-07-21T12:12:15.314Z,47.08
2018-07-21T12:13:15.364Z,47.37
2018-07-21T12:14:15.374Z,47.17
2018-07-21T12:15:15.401Z,47.37
2018-07-21T12:16:15.428Z,47.44
2018-07-21T12:17:15.457Z,48.13
2018-07-21T12:18:15.487Z,48.22
2018-07-21T12:19:15.516Z,48.25
2018-07-21T12:20:15.566Z,47.76
2018-07-21T12:21:15.573Z,47.76
2018-07-21T12:22:15.602Z,47.74
2018-07-21T12:23:15.629Z,48.03
2018-07-21T12:24:15.661Z,48.15
2018-07-21T12:25:15.685Z,47.66
2018-07-21T12:26:15.713Z,47.86
2018-07-21T12:27:15.746Z,47.27
2018-07-21T12:28:15.774Z,47.49
2018-07-21T12:29:15.803Z,47.00
2018-07-21T12:30:15.832Z,47.39
2018-07-21T12:31:15.860Z,46.71
2018-07-21T12:32:15.886Z,46.61
2018-07-21T12:33:15.914Z,46.54
2018-07-21T12:34:15.971Z,46.34
2018-07-21T12:35:15.974Z,45.76
2018-07-21T12:36:16.001Z,45.47
2018-07-21T12:37:16.032Z,45.08
2018-07-21T12:38:16.062Z,45.28
2018-07-21T12:39:16.091Z,45.37
2018-07-21T12:40:16.120Z,45.49
2018-07-21T12:41:16.199Z,45.29
2018-07-21T12:42:16.180Z,45.28
2018-07-21T12:43:16.209Z,46.23
2018-07-21T12:44:16.232Z,46.40
2018-07-21T12:45:16.264Z,46.59
2018-07-21T12:46:16.300Z,47.56
2018-07-21T12:47:16.382Z,47.49
2018-07-21T12:48:16.351Z,47.47
2018-07-21T12:49:16.381Z,47.20
2018-07-21T12:50:16.408Z,47.39
2018-07-21T12:51:16.436Z,47.20
2018-07-21T12:52:16.464Z,47.49
2018-07-21T12:53:16.497Z,47.30